Rawl, WV

11:01 PM EDT on April 20, 2015 (GMT -0400)
Lonesome Pine | | Change Station
CLOSE
Current Station
Airport
Location: Wise,
Elevation: 2684 ft
Nearby Weather Stations

Elev 2684 ft 36.99 °N, 82.53 °W | Updated 6 minutes ago

Rain
Rain
46 °F
Feels Like 42 °F
N
9
Wind Variable Wind from West

Today
High -- | Low -- °F
--% Chance of Precip.
Yesterday
High -- | Low -- °F
Precip. -- in
6:47 AM 8:08 PM
Waxing Crescent, 7% visible
Pressure 29.83 in
Visibility 10.0 miles
Clouds Scattered Clouds 2900 ft
Mostly Cloudy 3500 ft
Overcast 4600 ft
Windchill 42 °F
Dew Point 39 °F
Humidity 76%
Rainfall 0.16 in
Snow Depth Not available.
UV 0 out of 12
Pollen 6.70 out of 12
Air Quality Not available.
Flu Activity Sporadic
METAR KLNP 210255Z AUTO 26008KT 10SM -RA SCT029 BKN035 OVC046 08/04 A2983 RMK AO2

More Conditions Fewer Conditions

Pressure 29.83 in
Visibility 10.0 miles
Clouds Scattered Clouds 2900 ft
Mostly Cloudy 3500 ft
Overcast 4600 ft
Windchill 42 °F
Dew Point 39 °F
Humidity 76%
Rainfall 0.16 in
Snow Depth Not available.
UV 0 out of 12
Pollen 6.70 out of 12
Air Quality Not available.
Flu Activity Sporadic
METAR KLNP 210255Z AUTO 26008KT 10SM -RA SCT029 BKN035 OVC046 08/04 A2983 RMK AO2

More Conditions Fewer Conditions

10-Day Weather Forecast

Almanac

Astronomy

Apr. 20, 2015 Rise Set
Actual Time
Civil Twilight
Nautical Twilight
Astronomical Twilight
Moon
Length of Visible Light
Length of Day
Tomorrow will be .
, % of the Moon is Illuminated

Today's Extremes

State Highs State Lows

Community

WunderPhotos

Upload Photos

1,815,283 photos uploaded!

WunderBlogs® & News

Nearby

Air Quality

  Air Quality AQ Index Pollutant
Not available.

Snow Depth

Station Depth Elevation

Earthquake Activity

City Distance Mag. Time & Date
Minimum magnitude displayed is 2.5.

Coastal Water Temperatures

Place Temperature

Stations

Nearby Weather Stations

Station Location Temp. Windchill Dew Point Humidity Wind Precip. Elev Updated Type